createdAt,value
2024-03-12T00:01:21.286Z,17.08
2024-03-12T00:03:49.420Z,14.75
2024-03-12T00:06:17.003Z,15.55
2024-03-12T00:08:44.841Z,14.82
2024-03-12T00:11:12.681Z,15.63
2024-03-12T00:13:41.284Z,16.58
2024-03-12T00:16:08.746Z,14.95
2024-03-12T00:18:36.580Z,15.38
2024-03-12T00:21:04.255Z,16.00
2024-03-12T00:23:31.937Z,14.98
2024-03-12T00:25:59.446Z,14.45
2024-03-12T00:28:27.810Z,15.75
2024-03-12T00:30:55.826Z,14.75
2024-03-12T00:33:24.557Z,12.15
2024-03-12T00:35:52.634Z,11.65
2024-03-12T00:38:20.311Z,15.30
2024-03-12T00:40:49.669Z,14.05
2024-03-12T00:43:19.249Z,14.93
2024-03-12T00:45:47.680Z,15.50
2024-03-12T00:48:15.881Z,16.38
2024-03-12T00:50:46.761Z,15.13
2024-03-12T00:53:15.503Z,12.90
2024-03-12T00:55:44.213Z,14.98
2024-03-12T00:58:13.796Z,14.48
2024-03-12T01:00:42.242Z,14.40
2024-03-12T01:03:11.221Z,12.93
2024-03-12T01:05:39.966Z,15.50
2024-03-12T01:08:09.613Z,14.63
2024-03-12T01:10:37.629Z,15.98
2024-03-12T01:13:07.898Z,15.85
2024-03-12T01:15:36.582Z,15.80
2024-03-12T01:18:04.988Z,16.63
2024-03-12T01:20:35.731Z,16.92
2024-03-12T01:23:06.938Z,15.10
2024-03-12T01:25:38.688Z,14.43
2024-03-12T01:28:08.608Z,14.55
2024-03-12T01:30:38.071Z,16.35
2024-03-12T01:33:07.493Z,16.08
2024-03-12T01:35:40.927Z,15.82
2024-03-12T01:38:11.930Z,15.55
2024-03-12T01:40:40.708Z,16.02
2024-03-12T01:43:09.379Z,15.55
2024-03-12T01:45:37.616Z,15.90
2024-03-12T01:48:12.414Z,14.80
2024-03-12T01:50:41.110Z,15.80
2024-03-12T01:53:09.982Z,18.10
2024-03-12T01:55:45.948Z,16.35
2024-03-12T01:58:18.462Z,16.50
2024-03-12T02:00:47.198Z,13.45
2024-03-12T02:03:16.408Z,11.18
2024-03-12T02:05:43.960Z,17.65
2024-03-12T02:08:12.418Z,16.35
2024-03-12T02:10:39.801Z,18.75
2024-03-12T02:13:07.794Z,17.58
2024-03-12T02:15:35.739Z,16.77
2024-03-12T02:18:03.826Z,18.83
2024-03-12T02:20:31.322Z,18.92
2024-03-12T02:23:00.597Z,18.20
2024-03-12T02:25:28.301Z,19.23
2024-03-12T02:27:57.883Z,16.20
2024-03-12T02:30:26.087Z,19.40
2024-03-12T02:32:54.082Z,18.05
2024-03-12T02:35:21.838Z,17.90
2024-03-12T02:37:49.544Z,15.68
2024-03-12T02:40:19.867Z,18.40
2024-03-12T02:42:48.011Z,18.80
2024-03-12T02:45:22.130Z,18.20
2024-03-12T02:47:50.611Z,18.58
2024-03-12T02:50:19.643Z,17.10
2024-03-12T02:52:47.509Z,18.17
2024-03-12T02:55:15.588Z,17.15
2024-03-12T02:57:43.559Z,17.30
2024-03-12T03:00:15.582Z,17.88
2024-03-12T03:05:12.534Z,15.52
2024-03-12T03:07:41.973Z,19.30
2024-03-12T03:10:12.118Z,16.92
2024-03-12T03:12:41.144Z,17.77
2024-03-12T03:15:13.488Z,12.98
2024-03-12T03:17:44.585Z,17.83
2024-03-12T03:20:13.708Z,17.67
2024-03-12T03:22:41.908Z,19.27
2024-03-12T03:25:13.467Z,19.13
2024-03-12T03:27:41.777Z,17.02
2024-03-12T03:30:11.421Z,18.90
2024-03-12T03:32:40.693Z,19.00
2024-03-12T03:35:08.459Z,19.00
2024-03-12T03:37:41.789Z,18.48
2024-03-12T03:40:12.704Z,19.75
2024-03-12T03:42:43.132Z,20.20
2024-03-12T03:45:10.960Z,20.38
2024-03-12T03:47:38.885Z,17.23
2024-03-12T03:50:09.219Z,18.40
2024-03-12T03:52:40.534Z,18.83
2024-03-12T03:55:08.582Z,18.38
2024-03-12T03:57:36.770Z,19.02
2024-03-12T04:00:14.012Z,17.45
2024-03-12T04:02:43.091Z,19.25
2024-03-12T04:05:12.320Z,21.75
2024-03-12T04:07:42.172Z,19.65
2024-03-12T04:10:13.570Z,19.02
2024-03-12T04:12:48.636Z,17.67
2024-03-12T04:15:16.350Z,13.95
2024-03-12T04:17:45.877Z,19.52
2024-03-12T04:20:14.057Z,18.13
2024-03-12T04:22:44.974Z,20.38
2024-03-12T04:25:13.978Z,22.92
2024-03-12T04:27:41.730Z,21.40
2024-03-12T04:30:11.014Z,21.33
2024-03-12T04:32:39.326Z,19.23
2024-03-12T04:35:07.161Z,19.13
2024-03-12T04:37:34.937Z,19.80
2024-03-12T04:40:08.243Z,20.60
2024-03-12T04:42:38.280Z,21.52
2024-03-12T04:45:06.744Z,20.60
2024-03-12T04:47:36.727Z,21.13
2024-03-12T04:50:05.628Z,19.77
2024-03-12T04:52:35.193Z,21.58
2024-03-12T04:55:03.064Z,21.08
2024-03-12T04:57:30.841Z,18.52
2024-03-12T04:59:58.274Z,20.50
2024-03-12T05:02:26.042Z,22.05
2024-03-12T05:04:53.394Z,20.25
2024-03-12T05:07:21.417Z,21.88
2024-03-12T05:09:48.968Z,18.05
2024-03-12T05:12:16.623Z,21.25
2024-03-12T05:14:44.926Z,23.10
2024-03-12T05:17:12.520Z,23.88
2024-03-12T05:19:39.835Z,24.17
2024-03-12T05:22:08.435Z,22.63
2024-03-12T05:24:36.971Z,19.48
2024-03-12T05:27:05.261Z,22.08
2024-03-12T05:29:43.563Z,22.13
2024-03-12T05:32:25.132Z,22.02
2024-03-12T05:35:00.483Z,23.55
2024-03-12T05:37:42.010Z,21.10
2024-03-12T05:40:16.220Z,18.42
2024-03-12T05:43:05.664Z,17.35
2024-03-12T05:45:51.692Z,23.13
2024-03-12T05:48:19.532Z,22.35
2024-03-12T05:50:46.864Z,21.77
2024-03-12T05:53:14.847Z,22.02
2024-03-12T05:55:42.970Z,22.88
2024-03-12T05:58:13.851Z,24.10
2024-03-12T06:00:41.369Z,22.60
2024-03-12T06:03:09.078Z,23.40
2024-03-12T06:05:36.941Z,23.02
2024-03-12T06:08:06.036Z,21.75
2024-03-12T06:10:33.442Z,23.95
2024-03-12T06:13:01.279Z,22.02
2024-03-12T06:15:28.800Z,23.98
2024-03-12T06:17:56.634Z,20.83
2024-03-12T06:20:24.127Z,21.92
2024-03-12T06:22:51.768Z,22.85
2024-03-12T06:25:19.431Z,21.52
2024-03-12T06:27:47.362Z,23.08
2024-03-12T06:30:16.282Z,22.42
2024-03-12T06:32:43.720Z,23.23
2024-03-12T06:35:11.663Z,23.33
2024-03-12T06:37:39.504Z,23.90
2024-03-12T06:40:08.195Z,21.75
2024-03-12T06:42:36.866Z,18.85
2024-03-12T06:45:04.847Z,25.08
2024-03-12T06:47:38.539Z,22.63
2024-03-12T06:50:09.581Z,23.23
2024-03-12T06:52:37.613Z,23.75
2024-03-12T06:55:06.444Z,22.73
2024-03-12T06:57:35.596Z,21.85
2024-03-12T07:00:11.178Z,22.83
2024-03-12T07:02:39.732Z,24.33
2024-03-12T07:05:11.033Z,22.38
2024-03-12T07:07:45.251Z,22.52
2024-03-12T07:10:13.555Z,23.35
2024-03-12T07:12:41.142Z,21.23
2024-03-12T07:15:09.268Z,24.00
2024-03-12T07:17:36.675Z,22.15
2024-03-12T07:20:11.710Z,22.77
2024-03-12T07:22:46.414Z,22.88
2024-03-12T07:25:14.806Z,23.98
2024-03-12T07:27:43.795Z,23.70
2024-03-12T07:30:12.232Z,23.33
2024-03-12T07:32:40.189Z,21.92
2024-03-12T07:35:08.300Z,24.40
2024-03-12T07:37:45.316Z,22.23
2024-03-12T07:40:14.145Z,23.73
2024-03-12T07:42:45.396Z,22.80
2024-03-12T07:45:16.041Z,21.25
2024-03-12T07:47:43.786Z,23.23
2024-03-12T07:50:15.223Z,22.17
2024-03-12T07:52:43.124Z,22.38
2024-03-12T07:55:14.543Z,22.80
2024-03-12T07:57:41.909Z,20.90
2024-03-12T08:00:16.516Z,23.17
2024-03-12T08:02:44.240Z,21.95
2024-03-12T08:05:18.290Z,19.38
2024-03-12T08:07:46.688Z,23.10
2024-03-12T08:10:14.795Z,21.33
2024-03-12T08:12:42.354Z,23.90
2024-03-12T08:15:10.648Z,22.52
2024-03-12T08:17:39.674Z,21.83
2024-03-12T08:20:12.051Z,21.95
2024-03-12T08:22:40.337Z,21.83
2024-03-12T08:25:11.017Z,20.30
2024-03-12T08:27:41.120Z,22.38
2024-03-12T08:30:09.686Z,21.33
2024-03-12T08:32:37.805Z,21.58
2024-03-12T08:35:06.614Z,21.27
2024-03-12T08:37:38.361Z,21.92
2024-03-12T08:42:44.892Z,21.17
2024-03-12T08:45:21.239Z,15.98
2024-03-12T08:47:50.746Z,20.48
2024-03-12T08:50:18.677Z,21.08
2024-03-12T08:52:46.303Z,22.42
2024-03-12T08:55:15.379Z,22.65
2024-03-12T08:57:43.456Z,20.65
2024-03-12T09:00:15.032Z,22.20
2024-03-12T09:02:42.391Z,21.23
2024-03-12T09:05:10.986Z,23.70
2024-03-12T09:07:38.749Z,22.33
2024-03-12T09:10:12.906Z,20.38
2024-03-12T09:12:42.572Z,23.13
2024-03-12T09:15:11.286Z,22.75
2024-03-12T09:17:39.925Z,26.65
2024-03-12T09:20:14.229Z,21.73
2024-03-12T09:22:45.755Z,18.52
2024-03-12T09:25:15.708Z,20.55
2024-03-12T09:27:43.791Z,18.65
2024-03-12T09:30:12.069Z,18.80
2024-03-12T09:32:40.886Z,20.23
2024-03-12T09:35:08.975Z,20.48
2024-03-12T09:37:37.449Z,21.00
2024-03-12T09:40:09.457Z,19.40
2024-03-12T09:42:37.644Z,20.67
2024-03-12T09:45:09.838Z,21.08
2024-03-12T09:47:38.290Z,19.85
2024-03-12T09:50:12.256Z,22.30
2024-03-12T09:52:40.167Z,21.25
2024-03-12T09:55:12.788Z,20.35
2024-03-12T09:57:46.229Z,20.13
2024-03-12T10:00:24.091Z,18.40
2024-03-12T10:02:52.241Z,18.70
2024-03-12T10:05:24.429Z,19.80
2024-03-12T10:08:13.782Z,21.23
2024-03-12T10:10:44.282Z,19.40
2024-03-12T10:13:19.351Z,20.40
2024-03-12T10:16:05.351Z,18.55
2024-03-12T10:18:38.788Z,23.23
2024-03-12T10:21:08.668Z,20.58
2024-03-12T10:23:42.196Z,20.48
2024-03-12T10:26:18.243Z,20.08
2024-03-12T10:28:47.187Z,17.42
2024-03-12T10:31:16.415Z,19.88
2024-03-12T10:33:51.864Z,18.30
2024-03-12T10:36:30.811Z,18.98
2024-03-12T10:38:58.298Z,18.00
2024-03-12T10:41:26.951Z,17.58
2024-03-12T10:44:08.236Z,17.83
2024-03-12T10:46:36.975Z,20.13
2024-03-12T10:49:09.251Z,18.92
2024-03-12T10:51:40.625Z,19.90
2024-03-12T10:54:17.698Z,17.30
2024-03-12T10:56:49.390Z,17.38
2024-03-12T10:59:19.628Z,16.77
2024-03-12T11:01:49.604Z,18.20
2024-03-12T11:04:17.632Z,17.05
2024-03-12T11:06:49.594Z,17.55
2024-03-12T11:09:23.049Z,17.48
2024-03-12T11:11:51.143Z,17.65
2024-03-12T11:14:18.834Z,18.33
2024-03-12T11:16:47.440Z,17.77
2024-03-12T11:19:24.630Z,19.52
2024-03-12T11:21:53.145Z,18.50
2024-03-12T11:24:49.463Z,19.27
2024-03-12T11:27:28.610Z,18.83
2024-03-12T11:30:19.501Z,18.48
2024-03-12T11:32:52.576Z,20.60
2024-03-12T11:35:22.794Z,19.75
2024-03-12T11:38:00.309Z,18.80
2024-03-12T11:40:43.286Z,19.20
2024-03-12T11:43:14.959Z,19.83
2024-03-12T11:45:49.803Z,20.10
2024-03-12T11:48:33.347Z,17.83
2024-03-12T11:51:01.672Z,19.48
2024-03-12T11:53:34.576Z,20.10
2024-03-12T11:56:09.673Z,20.17
2024-03-12T11:58:45.979Z,19.17
2024-03-12T12:01:41.465Z,18.95
2024-03-12T12:04:12.157Z,17.73
2024-03-12T12:06:39.914Z,19.60
2024-03-12T12:09:12.332Z,20.55
2024-03-12T12:11:40.845Z,21.50
2024-03-12T12:14:11.071Z,19.27
2024-03-12T12:16:41.642Z,20.65
2024-03-12T12:19:15.913Z,21.77
2024-03-12T12:21:46.826Z,21.02
2024-03-12T12:24:15.205Z,21.60
2024-03-12T12:26:45.845Z,22.45
2024-03-12T12:29:14.948Z,20.80
2024-03-12T12:31:43.488Z,22.38
2024-03-12T12:34:12.422Z,21.35
2024-03-12T12:36:45.055Z,21.27
2024-03-12T12:39:14.581Z,22.73
2024-03-12T12:41:46.894Z,22.83
2024-03-12T12:44:22.872Z,21.08
2024-03-12T12:46:53.912Z,19.65
2024-03-12T12:49:23.777Z,18.83
2024-03-12T12:51:51.979Z,21.35
2024-03-12T12:54:23.713Z,21.15
2024-03-12T12:56:52.164Z,19.80
2024-03-12T12:59:24.858Z,20.65
2024-03-12T13:01:53.487Z,19.05
2024-03-12T13:04:26.379Z,21.15
2024-03-12T13:06:56.054Z,20.30
2024-03-12T13:09:33.681Z,20.33
2024-03-12T13:12:02.688Z,19.63
2024-03-12T13:14:31.200Z,20.08
2024-03-12T13:17:00.875Z,21.40
2024-03-12T13:19:29.316Z,20.45
2024-03-12T13:21:59.370Z,20.13
2024-03-12T13:24:27.138Z,19.10
2024-03-12T13:26:54.994Z,20.40
2024-03-12T13:29:22.361Z,21.60
2024-03-12T13:31:50.206Z,21.77
2024-03-12T13:34:17.701Z,20.13
2024-03-12T13:36:45.919Z,21.40
2024-03-12T13:39:16.483Z,20.00
2024-03-12T13:41:44.543Z,20.50
2024-03-12T13:44:13.222Z,20.98
2024-03-12T13:46:44.287Z,20.02
2024-03-12T13:49:18.767Z,22.35
2024-03-12T13:51:47.941Z,21.85
2024-03-12T13:54:16.267Z,19.45
2024-03-12T13:56:46.442Z,19.73
2024-03-12T13:59:15.439Z,21.33
2024-03-12T14:01:43.949Z,21.50
2024-03-12T14:04:12.974Z,20.13
2024-03-12T14:06:41.562Z,21.10
2024-03-12T14:09:13.118Z,18.77
2024-03-12T14:11:41.424Z,18.88
2024-03-12T14:14:12.535Z,18.50
2024-03-12T14:16:40.806Z,18.73
2024-03-12T14:19:08.307Z,18.10
2024-03-12T14:21:36.932Z,17.77
2024-03-12T14:24:04.938Z,18.02
2024-03-12T14:26:33.119Z,17.73
2024-03-12T14:29:00.315Z,17.40
2024-03-12T14:31:28.507Z,16.85
2024-03-12T14:33:56.133Z,18.20
2024-03-12T14:36:23.960Z,18.40
2024-03-12T14:38:54.615Z,19.65
2024-03-12T14:41:24.258Z,21.05
2024-03-12T14:43:51.741Z,19.48
2024-03-12T14:46:20.142Z,21.63
2024-03-12T14:48:48.159Z,20.48
2024-03-12T14:51:16.013Z,19.92
2024-03-12T14:53:43.468Z,21.42
2024-03-12T14:56:11.392Z,20.27
2024-03-12T14:58:38.788Z,19.90
2024-03-12T15:01:07.604Z,20.00
2024-03-12T15:03:36.041Z,20.05
2024-03-12T15:06:04.506Z,18.48
2024-03-12T15:08:31.807Z,19.77
2024-03-12T15:10:59.821Z,20.25
2024-03-12T15:13:27.274Z,21.05
2024-03-12T15:15:55.982Z,21.92
2024-03-12T15:18:24.711Z,20.70
2024-03-12T15:20:53.405Z,19.83
2024-03-12T15:23:20.805Z,20.08
2024-03-12T15:25:48.619Z,19.98
2024-03-12T15:28:16.572Z,20.75
2024-03-12T15:30:45.241Z,22.65
2024-03-12T15:33:13.671Z,20.30
2024-03-12T15:35:41.435Z,18.92
2024-03-12T15:38:08.957Z,20.63
2024-03-12T15:40:36.866Z,20.40
2024-03-12T15:43:06.999Z,17.25
2024-03-12T15:45:34.806Z,20.20
2024-03-12T15:48:02.251Z,19.40
2024-03-12T15:50:30.217Z,19.50
2024-03-12T15:52:58.406Z,19.95
2024-03-12T15:55:27.519Z,19.45
2024-03-12T15:57:56.052Z,20.05
2024-03-12T16:00:24.099Z,20.20
2024-03-12T16:02:55.710Z,19.33
2024-03-12T16:05:24.020Z,19.33
2024-03-12T16:07:52.759Z,18.90
2024-03-12T16:10:22.032Z,20.58
2024-03-12T16:12:49.779Z,20.17
2024-03-12T16:15:19.505Z,18.90
2024-03-12T16:17:47.175Z,18.95
2024-03-12T16:20:15.981Z,20.42
2024-03-12T16:22:44.102Z,18.00
2024-03-12T16:25:12.174Z,19.63
2024-03-12T16:27:41.037Z,21.15
2024-03-12T16:30:11.864Z,19.42
2024-03-12T16:32:41.501Z,19.77
2024-03-12T16:35:09.750Z,19.73
2024-03-12T16:37:40.647Z,20.35
2024-03-12T16:40:09.544Z,20.75
2024-03-12T16:42:37.521Z,21.08
2024-03-12T16:45:07.153Z,19.95
2024-03-12T16:47:35.139Z,21.95
2024-03-12T16:50:09.801Z,21.58
2024-03-12T16:52:38.820Z,20.75
2024-03-12T16:55:08.454Z,20.80
2024-03-12T16:57:36.202Z,20.02
2024-03-12T17:00:06.828Z,20.52
2024-03-12T17:02:43.520Z,22.25
2024-03-12T17:05:23.041Z,21.38
2024-03-12T17:07:52.044Z,21.05
2024-03-12T17:10:23.257Z,20.67
2024-03-12T17:12:51.438Z,18.52
2024-03-12T17:15:22.097Z,20.73
2024-03-12T17:17:50.870Z,19.55
2024-03-12T17:20:18.897Z,20.50
2024-03-12T17:22:47.996Z,18.98
2024-03-12T17:25:18.561Z,20.40
2024-03-12T17:27:49.061Z,19.73
2024-03-12T17:30:17.182Z,20.83
2024-03-12T17:32:47.305Z,21.17
2024-03-12T17:35:16.337Z,19.80
2024-03-12T17:37:45.065Z,20.88
2024-03-12T17:40:17.060Z,19.25
2024-03-12T17:42:48.728Z,20.02
2024-03-12T17:45:17.065Z,20.55
2024-03-12T17:47:50.811Z,20.83
2024-03-12T17:50:22.557Z,20.73
2024-03-12T17:52:51.623Z,19.35
2024-03-12T17:55:20.745Z,20.95
2024-03-12T17:57:49.306Z,20.27
2024-03-12T18:00:19.220Z,19.67
2024-03-12T18:02:47.544Z,19.70
2024-03-12T18:05:20.875Z,20.85
2024-03-12T18:07:49.772Z,23.55
2024-03-12T18:10:19.607Z,24.80
2024-03-12T18:12:48.772Z,21.33
2024-03-12T18:15:17.857Z,22.92
2024-03-12T18:17:46.384Z,22.08
2024-03-12T18:20:35.601Z,22.45
2024-03-12T18:23:02.980Z,22.55
2024-03-12T18:25:31.826Z,21.77
2024-03-12T18:27:59.399Z,22.88
2024-03-12T18:30:28.323Z,21.98
2024-03-12T18:32:56.087Z,21.65
2024-03-12T18:35:25.245Z,24.20
2024-03-12T18:37:52.842Z,37.60
2024-03-12T18:40:23.614Z,24.83
2024-03-12T18:42:52.442Z,24.08
2024-03-12T18:45:21.528Z,36.35
2024-03-12T18:47:49.914Z,27.42
2024-03-12T18:50:19.311Z,26.00
2024-03-12T18:52:47.542Z,25.25
2024-03-12T18:55:18.471Z,36.75
2024-03-12T18:57:47.319Z,33.95
2024-03-12T19:00:19.883Z,26.33
2024-03-12T19:02:49.044Z,32.05
2024-03-12T19:05:18.386Z,35.47
2024-03-12T19:07:47.488Z,30.20
2024-03-12T19:10:17.085Z,27.23
2024-03-12T19:12:45.840Z,24.63
2024-03-12T19:15:16.379Z,27.58
2024-03-12T19:17:45.822Z,25.17
2024-03-12T19:20:19.590Z,26.38
2024-03-12T19:22:50.844Z,27.50
2024-03-12T19:25:19.976Z,28.40
2024-03-12T19:27:49.827Z,28.35
2024-03-12T19:30:23.172Z,29.77
2024-03-12T19:35:22.693Z,27.80
2024-03-12T19:37:50.565Z,29.10
2024-03-12T19:40:21.292Z,35.67
2024-03-12T19:42:53.201Z,29.08
2024-03-12T19:45:29.010Z,26.85
2024-03-12T19:47:57.967Z,25.88
2024-03-12T19:50:26.819Z,27.40
2024-03-12T19:52:56.592Z,25.70
2024-03-12T19:55:26.231Z,23.40
2024-03-12T19:57:57.804Z,24.77
2024-03-12T20:00:34.422Z,25.30
2024-03-12T20:03:27.890Z,27.75
2024-03-12T20:05:58.216Z,27.55
2024-03-12T20:08:27.242Z,29.15
2024-03-12T20:10:57.448Z,31.50
2024-03-12T20:13:25.244Z,30.38
2024-03-12T20:15:53.255Z,27.25
2024-03-12T20:18:21.033Z,28.77
2024-03-12T20:20:48.751Z,29.08
2024-03-12T20:23:18.182Z,30.70
2024-03-12T20:25:47.418Z,30.70
2024-03-12T20:28:16.104Z,29.98
2024-03-12T20:30:44.317Z,29.65
2024-03-12T20:33:14.684Z,30.63
2024-03-12T20:35:44.549Z,31.30
2024-03-12T20:38:12.698Z,33.22
2024-03-12T20:40:41.342Z,34.10
2024-03-12T20:43:09.633Z,32.83
2024-03-12T20:45:40.317Z,34.60
2024-03-12T20:48:11.981Z,34.85
2024-03-12T20:50:41.223Z,33.83
2024-03-12T20:53:08.947Z,37.35
2024-03-12T20:55:45.301Z,33.90
2024-03-12T20:58:15.028Z,32.72
2024-03-12T21:00:43.361Z,34.42
2024-03-12T21:03:11.133Z,32.58
2024-03-12T21:05:40.433Z,33.17
2024-03-12T21:08:08.487Z,34.15
2024-03-12T21:10:37.957Z,33.67
2024-03-12T21:13:05.412Z,33.95
2024-03-12T21:15:33.342Z,36.03
2024-03-12T21:18:01.815Z,33.25
2024-03-12T21:20:33.836Z,35.60
2024-03-12T21:23:04.029Z,34.75
2024-03-12T21:25:33.337Z,35.63
2024-03-12T21:28:00.744Z,37.03
2024-03-12T21:30:29.356Z,34.45
2024-03-12T21:32:57.170Z,34.15
2024-03-12T21:35:25.300Z,34.45
2024-03-12T21:37:53.250Z,33.75
2024-03-12T21:40:21.260Z,32.88
2024-03-12T21:42:48.771Z,33.53
2024-03-12T21:45:19.468Z,33.03
2024-03-12T21:47:48.794Z,32.47
2024-03-12T21:50:17.819Z,32.45
2024-03-12T21:52:46.643Z,32.15
2024-03-12T21:55:15.693Z,32.78
2024-03-12T21:57:45.118Z,38.50
2024-03-12T22:00:20.624Z,38.13
2024-03-12T22:02:50.002Z,35.60
2024-03-12T22:05:21.351Z,39.08
2024-03-12T22:07:51.035Z,40.88
2024-03-12T22:10:19.341Z,46.67
2024-03-12T22:12:48.431Z,43.80
2024-03-12T22:15:20.745Z,41.03
2024-03-12T22:17:52.413Z,40.80
2024-03-12T22:20:23.839Z,38.35
2024-03-12T22:22:52.097Z,36.78
2024-03-12T22:25:27.505Z,35.35
2024-03-12T22:27:58.354Z,35.00
2024-03-12T22:30:29.698Z,37.67
2024-03-12T22:32:58.344Z,37.58
2024-03-12T22:35:27.518Z,38.50
2024-03-12T22:37:59.701Z,33.47
2024-03-12T22:40:28.587Z,34.70
2024-03-12T22:42:57.356Z,34.10
2024-03-12T22:45:26.117Z,34.95
2024-03-12T22:47:54.446Z,36.80
2024-03-12T22:50:23.959Z,36.35
2024-03-12T22:52:55.542Z,35.58
2024-03-12T22:55:27.518Z,35.45
2024-03-12T22:57:56.924Z,34.63
2024-03-12T23:00:29.599Z,34.55
2024-03-12T23:03:02.603Z,36.13
2024-03-12T23:08:07.926Z,33.03
2024-03-12T23:10:45.489Z,33.22
2024-03-12T23:13:17.743Z,34.17
2024-03-12T23:15:46.115Z,33.50
2024-03-12T23:18:13.603Z,35.13
2024-03-12T23:20:42.069Z,34.72
2024-03-12T23:23:09.260Z,35.25
2024-03-12T23:25:37.698Z,34.42
2024-03-12T23:28:05.697Z,35.28
2024-03-12T23:30:37.246Z,34.33
2024-03-12T23:33:04.961Z,33.65
2024-03-12T23:35:34.243Z,36.50
2024-03-12T23:38:03.307Z,36.15
2024-03-12T23:40:31.131Z,35.47
2024-03-12T23:42:58.576Z,34.00
2024-03-12T23:45:27.807Z,33.50
2024-03-12T23:47:55.308Z,33.25
2024-03-12T23:50:23.042Z,34.72
2024-03-12T23:52:50.377Z,32.95
2024-03-12T23:55:17.972Z,33.58
2024-03-12T23:57:45.565Z,33.95
